Time;durP1;ratioP1;P1;durP2;ratioP2;P2;SDS_P1;SDS_P2;PMS_P1;PMS_P2;Temp;Humidity;BMP_temperature;BMP_pressure;BME280_temperature;BME280_humidity;BME280_pressure;Samples;Min_cycle;Max_cycle;Signal;HPM_P1;HPM_P2
2020/12/18 00:01:29;;;;;;;814.27;747.57;;;;;;;;;;5018826;28;20236;-66
2020/12/18 00:03:56;;;;;;;793.03;731.73;;;;;;;;;;5020394;28;20203;-63
2020/12/18 00:06:24;;;;;;;761.83;704.77;;;;;;;;;;5019578;28;20212;-66
2020/12/18 00:08:53;;;;;;;699.27;652.10;;;;;;;;;;5019273;28;20840;-64
2020/12/18 00:11:29;;;;;;;793.33;734.80;;;;;;;;;;5018595;28;20214;-64
2020/12/18 00:13:56;;;;;;;720.43;668.53;;;;;;;;;;5018679;28;20198;-65
2020/12/18 00:16:24;;;;;;;826.30;758.80;;;;;;;;;;5016595;28;20677;-65
2020/12/18 00:18:51;;;;;;;789.07;728.53;;;;;;;;;;5019161;28;20190;-64
2020/12/18 00:21:21;;;;;;;828.83;762.33;;;;;;;;;;5015406;28;20200;-64
2020/12/18 00:23:48;;;;;;;690.33;646.03;;;;;;;;;;5014014;28;20549;-65
2020/12/18 00:26:15;;;;;;;829.27;766.23;;;;;;;;;;5018756;28;20193;-65
2020/12/18 00:28:43;;;;;;;848.57;782.77;;;;;;;;;;5017549;28;20180;-64
2020/12/18 00:31:10;;;;;;;769.50;709.13;;;;;;;;;;5018651;28;20275;-64
2020/12/18 00:33:36;;;;;;;1000.90;906.03;;;;;;;;;;5016549;28;20179;-63
2020/12/18 00:36:04;;;;;;;788.43;728.67;;;;;;;;;;5012911;28;20216;-63
2020/12/18 00:38:31;;;;;;;822.33;758.83;;;;;;;;;;5013439;28;20196;-65
2020/12/18 00:40:58;;;;;;;799.07;737.27;;;;;;;;;;5020888;28;20584;-62
2020/12/18 00:43:25;;;;;;;907.07;830.43;;;;;;;;;;5019322;28;20183;-65
2020/12/18 00:45:52;;;;;;;980.80;884.40;;;;;;;;;;5019526;28;20196;-64
2020/12/18 00:48:19;;;;;;;1044.97;933.90;;;;;;;;;;5014447;28;20956;-65
2020/12/18 00:50:45;;;;;;;928.37;848.63;;;;;;;;;;5019415;28;20562;-62
2020/12/18 00:53:12;;;;;;;942.13;857.73;;;;;;;;;;5017213;28;20222;-67
2020/12/18 00:55:39;;;;;;;949.43;864.17;;;;;;;;;;5015063;28;20198;-65
2020/12/18 00:58:06;;;;;;;949.10;861.67;;;;;;;;;;5015899;28;20385;-63
2020/12/18 01:00:32;;;;;;;877.83;803.43;;;;;;;;;;5011865;28;20196;-63
2020/12/18 01:02:59;;;;;;;832.00;768.90;;;;;;;;;;5019253;28;20773;-66
2020/12/18 01:05:25;;;;;;;804.07;742.50;;;;;;;;;;5019738;28;20248;-64
2020/12/18 01:07:52;;;;;;;848.93;776.53;;;;;;;;;;5018729;28;20189;-63
2020/12/18 01:10:19;;;;;;;775.37;718.77;;;;;;;;;;5014713;28;20186;-65
2020/12/18 01:12:49;;;;;;;865.30;794.73;;;;;;;;;;5007858;28;20185;-63
2020/12/18 01:15:16;;;;;;;869.87;797.93;;;;;;;;;;5014086;28;20184;-62
2020/12/18 01:17:43;;;;;;;913.50;832.90;;;;;;;;;;5019588;28;20187;-63
2020/12/18 01:20:09;;;;;;;869.80;798.03;;;;;;;;;;5018297;28;20190;-62
2020/12/18 01:22:36;;;;;;;920.40;843.53;;;;;;;;;;5016830;28;20271;-62
2020/12/18 01:25:05;;;;;;;941.60;854.90;;;;;;;;;;5011717;28;20183;-62
2020/12/18 01:27:32;;;;;;;990.07;895.03;;;;;;;;;;5011447;28;20181;-63
2020/12/18 01:30:01;;;;;;;1007.97;904.63;;;;;;;;;;5009787;28;20191;-63
2020/12/18 01:32:30;;;;;;;1061.27;947.90;;;;;;;;;;5011479;28;20191;-62
2020/12/18 01:34:57;;;;;;;964.90;876.27;;;;;;;;;;5012778;28;20190;-61
2020/12/18 01:37:23;;;;;;;920.43;838.43;;;;;;;;;;5012790;28;20306;-63
2020/12/18 01:39:50;;;;;;;1052.80;944.27;;;;;;;;;;5017878;28;20688;-62
2020/12/18 01:42:22;;;;;;;965.07;879.57;;;;;;;;;;5017729;28;20227;-62
2020/12/18 01:44:51;;;;;;;968.93;879.10;;;;;;;;;;5019506;28;20202;-65
2020/12/18 01:47:30;;;;;;;863.20;790.37;;;;;;;;;;5017731;28;20702;-62
2020/12/18 01:49:57;;;;;;;1017.33;921.40;;;;;;;;;;5018763;28;20190;-63
2020/12/18 01:52:25;;;;;;;979.43;890.07;;;;;;;;;;5016067;28;20187;-66
2020/12/18 01:54:53;;;;;;;904.90;821.03;;;;;;;;;;5018859;28;20875;-62
2020/12/18 01:57:20;;;;;;;1012.83;916.83;;;;;;;;;;5017577;28;20200;-63
2020/12/18 01:59:47;;;;;;;1031.23;927.37;;;;;;;;;;5018029;28;20183;-61
2020/12/18 02:02:16;;;;;;;934.73;853.47;;;;;;;;;;5016990;28;20751;-64
2020/12/18 02:04:45;;;;;;;984.60;891.17;;;;;;;;;;5016683;28;20196;-64
2020/12/18 02:07:16;;;;;;;977.03;885.17;;;;;;;;;;5016255;28;20190;-65
2020/12/18 02:09:44;;;;;;;964.23;868.63;;;;;;;;;;5015620;28;20183;-63
2020/12/18 02:12:10;;;;;;;948.87;860.57;;;;;;;;;;5017678;28;20175;-63
2020/12/18 14:12:12;;;;;;;393.87;369.87;;;;;;;;;;5127299;27;20670;-64
2020/12/18 14:14:38;;;;;;;379.30;354.17;;;;;;;;;;5127782;27;20555;-64
2020/12/18 14:17:05;;;;;;;366.13;346.10;;;;;;;;;;5122763;27;20188;-66
2020/12/18 14:19:31;;;;;;;598.23;554.20;;;;;;;;;;5128538;27;20175;-64
2020/12/18 14:22:01;;;;;;;469.60;434.93;;;;;;;;;;5121579;27;20304;-67
2020/12/18 14:24:29;;;;;;;565.03;526.50;;;;;;;;;;5113461;27;20206;-64
2020/12/18 14:26:56;;;;;;;495.80;459.87;;;;;;;;;;5120468;27;20190;-66
2020/12/18 14:29:22;;;;;;;496.07;461.23;;;;;;;;;;5120759;27;20226;-64
2020/12/18 14:31:49;;;;;;;474.07;441.60;;;;;;;;;;5118332;27;20905;-65
2020/12/18 14:34:16;;;;;;;545.03;505.57;;;;;;;;;;5120798;27;20184;-65
2020/12/18 14:36:45;;;;;;;612.87;569.07;;;;;;;;;;5126077;27;20173;-65
2020/12/18 14:39:12;;;;;;;717.97;663.50;;;;;;;;;;5118430;27;20184;-65
2020/12/18 14:41:39;;;;;;;579.20;536.03;;;;;;;;;;5119150;27;20284;-65
2020/12/18 14:44:08;;;;;;;517.53;480.73;;;;;;;;;;5120741;27;20208;-65
2020/12/18 14:46:35;;;;;;;614.30;562.93;;;;;;;;;;5104652;27;20233;-66
2020/12/18 14:49:04;;;;;;;572.10;526.47;;;;;;;;;;5102789;27;20189;-63
2020/12/18 14:51:30;;;;;;;603.97;553.77;;;;;;;;;;5107751;27;20221;-65
2020/12/18 14:53:57;;;;;;;682.20;624.47;;;;;;;;;;5121041;27;20181;-66
2020/12/18 14:56:24;;;;;;;725.80;664.40;;;;;;;;;;5107280;27;20181;-65
2020/12/18 14:58:50;;;;;;;727.37;661.93;;;;;;;;;;5109767;27;20198;-66
2020/12/18 15:01:17;;;;;;;669.40;613.20;;;;;;;;;;5108602;27;20185;-67
2020/12/18 15:03:44;;;;;;;705.23;645.87;;;;;;;;;;5115186;27;20916;-65
2020/12/18 15:06:14;;;;;;;678.20;618.73;;;;;;;;;;5115792;27;20635;-66
2020/12/18 15:08:41;;;;;;;716.60;657.70;;;;;;;;;;5114184;27;20631;-66
2020/12/18 15:11:11;;;;;;;609.50;554.73;;;;;;;;;;5122301;27;20231;-64
2020/12/18 15:13:38;;;;;;;671.40;617.07;;;;;;;;;;5120488;27;20191;-65
2020/12/18 15:16:04;;;;;;;511.13;464.27;;;;;;;;;;5119231;27;20955;-64
2020/12/18 15:18:36;;;;;;;608.70;552.43;;;;;;;;;;5119905;27;20182;-64
2020/12/18 15:21:02;;;;;;;440.53;404.07;;;;;;;;;;5112228;27;20188;-64
2020/12/18 15:23:29;;;;;;;381.77;351.10;;;;;;;;;;5104183;27;20198;-65
2020/12/18 15:25:55;;;;;;;485.43;444.40;;;;;;;;;;5112045;27;20188;-66
2020/12/18 15:28:22;;;;;;;438.33;398.57;;;;;;;;;;5106347;27;20555;-64
2020/12/18 15:30:49;;;;;;;599.77;544.23;;;;;;;;;;5111233;27;20239;-64
2020/12/18 15:33:16;;;;;;;436.37;402.47;;;;;;;;;;5107376;27;20184;-65
2020/12/18 15:35:46;;;;;;;344.17;321.83;;;;;;;;;;5098360;27;20181;-64
2020/12/18 15:38:12;;;;;;;424.63;392.40;;;;;;;;;;5102991;27;20238;-64
2020/12/18 15:40:40;;;;;;;331.33;308.63;;;;;;;;;;5102593;27;20189;-65
2020/12/18 15:43:06;;;;;;;661.87;603.27;;;;;;;;;;5101457;27;20186;-66
2020/12/18 15:45:33;;;;;;;627.70;571.47;;;;;;;;;;5102940;27;20596;-65
2020/12/18 15:48:00;;;;;;;505.53;467.80;;;;;;;;;;5107766;27;20192;-66
2020/12/18 15:50:26;;;;;;;613.67;566.97;;;;;;;;;;5097731;27;20448;-65
2020/12/18 15:52:56;;;;;;;540.23;501.27;;;;;;;;;;5107992;27;20570;-64
2020/12/18 15:55:22;;;;;;;634.20;582.80;;;;;;;;;;5106450;27;20773;-64
2020/12/18 15:57:51;;;;;;;617.40;566.27;;;;;;;;;;5106040;27;20524;-64
2020/12/18 16:00:18;;;;;;;538.97;495.60;;;;;;;;;;5099260;27;20189;-65
2020/12/18 16:02:45;;;;;;;621.17;564.43;;;;;;;;;;5108358;27;20191;-66
2020/12/18 16:05:11;;;;;;;466.30;430.47;;;;;;;;;;5100520;27;20181;-64
2020/12/18 16:07:38;;;;;;;576.93;530.90;;;;;;;;;;5105384;27;20185;-65
2020/12/18 16:10:04;;;;;;;505.20;463.60;;;;;;;;;;5104394;27;20307;-66
2020/12/18 16:12:33;;;;;;;676.40;617.10;;;;;;;;;;5102535;27;20185;-65
2020/12/18 16:15:00;;;;;;;696.37;638.13;;;;;;;;;;5109842;27;20181;-66
2020/12/18 16:17:29;;;;;;;668.23;616.00;;;;;;;;;;5106804;27;20323;-66
2020/12/18 16:19:56;;;;;;;631.73;581.27;;;;;;;;;;5105499;27;20235;-65
2020/12/18 16:22:23;;;;;;;726.87;663.67;;;;;;;;;;5107462;27;20288;-64
2020/12/18 16:24:49;;;;;;;590.53;543.30;;;;;;;;;;5096810;27;20961;-65
2020/12/18 16:27:18;;;;;;;645.37;593.77;;;;;;;;;;5103748;27;20704;-64
2020/12/18 16:29:45;;;;;;;658.90;604.27;;;;;;;;;;5109238;27;20285;-64
2020/12/18 16:32:12;;;;;;;613.70;564.73;;;;;;;;;;5103482;27;20234;-65
2020/12/18 16:34:40;;;;;;;653.77;599.27;;;;;;;;;;5100944;27;20183;-65
2020/12/18 16:37:07;;;;;;;735.50;675.57;;;;;;;;;;5101781;27;20594;-66
2020/12/18 16:39:36;;;;;;;743.70;677.53;;;;;;;;;;5105318;27;20177;-65
2020/12/18 16:42:07;;;;;;;790.30;722.70;;;;;;;;;;5104193;27;20213;-65
2020/12/18 16:44:34;;;;;;;663.10;605.53;;;;;;;;;;5106658;27;20319;-65
2020/12/18 16:47:03;;;;;;;801.10;735.23;;;;;;;;;;5107155;27;21596;-67
2020/12/18 16:49:30;;;;;;;657.57;601.40;;;;;;;;;;5104561;27;20174;-66
2020/12/18 16:51:57;;;;;;;699.77;642.83;;;;;;;;;;5108445;27;20216;-67
2020/12/18 16:54:23;;;;;;;715.17;653.10;;;;;;;;;;5102478;27;20202;-66
2020/12/18 16:56:52;;;;;;;713.57;655.73;;;;;;;;;;5108485;27;20610;-66
2020/12/18 16:59:19;;;;;;;646.47;591.20;;;;;;;;;;5104961;27;20801;-65
2020/12/18 17:01:46;;;;;;;732.33;670.23;;;;;;;;;;5105230;27;20185;-66
2020/12/18 17:04:12;;;;;;;661.13;611.13;;;;;;;;;;5103626;27;20684;-64
2020/12/18 17:06:39;;;;;;;612.13;564.67;;;;;;;;;;5110173;27;20185;-65
2020/12/18 17:09:06;;;;;;;794.50;720.87;;;;;;;;;;5110929;27;20181;-66
2020/12/18 17:11:32;;;;;;;544.90;504.33;;;;;;;;;;5099655;27;20241;-65
2020/12/18 17:13:59;;;;;;;812.27;733.73;;;;;;;;;;5101230;27;20173;-63
2020/12/18 17:16:36;;;;;;;646.67;591.57;;;;;;;;;;5094345;27;20762;-65
2020/12/18 17:19:05;;;;;;;730.57;667.60;;;;;;;;;;5099507;27;20177;-65
2020/12/18 17:21:34;;;;;;;653.83;602.40;;;;;;;;;;5092755;27;20189;-63
2020/12/18 17:24:01;;;;;;;796.27;721.20;;;;;;;;;;5097212;27;20766;-64
2020/12/18 17:26:28;;;;;;;687.87;633.67;;;;;;;;;;5095914;27;20178;-64
2020/12/18 17:28:56;;;;;;;750.23;685.27;;;;;;;;;;5090842;27;20192;-66
2020/12/18 17:31:25;;;;;;;674.23;622.33;;;;;;;;;;5098527;27;20669;-64
2020/12/18 17:33:51;;;;;;;769.73;700.47;;;;;;;;;;5098702;27;20190;-63
2020/12/18 17:36:19;;;;;;;700.97;642.33;;;;;;;;;;5102860;27;20186;-65
2020/12/18 17:38:46;;;;;;;607.00;558.67;;;;;;;;;;5106181;27;20181;-66
2020/12/18 17:41:15;;;;;;;586.50;542.57;;;;;;;;;;5105731;27;20260;-64
2020/12/18 17:43:44;;;;;;;623.07;573.77;;;;;;;;;;5096245;27;20585;-65
2020/12/18 17:46:11;;;;;;;763.37;691.33;;;;;;;;;;5090683;27;20183;-66
2020/12/18 17:48:37;;;;;;;637.33;585.10;;;;;;;;;;5093598;27;20170;-66
2020/12/18 17:51:06;;;;;;;690.40;628.87;;;;;;;;;;5091097;27;20210;-65
2020/12/18 17:53:33;;;;;;;654.80;600.10;;;;;;;;;;5090998;27;20173;-64
2020/12/18 17:56:03;;;;;;;674.73;619.40;;;;;;;;;;5095660;27;20183;-66
2020/12/18 17:58:30;;;;;;;609.67;560.53;;;;;;;;;;5100405;27;20209;-66
2020/12/18 18:00:57;;;;;;;773.27;703.73;;;;;;;;;;5091249;28;20184;-67
2020/12/18 18:03:26;;;;;;;715.03;653.23;;;;;;;;;;5095839;27;20177;-65
2020/12/18 18:05:55;;;;;;;682.20;626.77;;;;;;;;;;5111616;27;20748;-64
2020/12/18 18:08:22;;;;;;;794.73;726.93;;;;;;;;;;5104325;27;20842;-64
2020/12/18 18:10:48;;;;;;;831.87;758.70;;;;;;;;;;5096498;28;20229;-64
2020/12/18 18:13:15;;;;;;;723.63;664.87;;;;;;;;;;5102124;28;20174;-66
2020/12/18 18:15:41;;;;;;;532.37;494.47;;;;;;;;;;5097688;28;20893;-66
2020/12/18 18:18:09;;;;;;;571.43;527.57;;;;;;;;;;5101146;28;20268;-66
2020/12/18 18:20:36;;;;;;;560.93;517.90;;;;;;;;;;5093718;28;20212;-67
2020/12/18 18:23:05;;;;;;;540.93;500.43;;;;;;;;;;5099085;28;20814;-68
2020/12/18 18:25:32;;;;;;;357.33;335.77;;;;;;;;;;5106501;28;20716;-66
2020/12/18 18:27:58;;;;;;;516.33;474.33;;;;;;;;;;5102915;28;20285;-66
2020/12/18 18:30:25;;;;;;;439.73;407.70;;;;;;;;;;5103683;28;20332;-68
2020/12/18 18:32:55;;;;;;;626.90;574.00;;;;;;;;;;5103705;28;20214;-65
2020/12/18 18:35:22;;;;;;;504.93;466.63;;;;;;;;;;5094613;28;20201;-66
2020/12/18 18:37:57;;;;;;;514.17;474.77;;;;;;;;;;5098408;28;20173;-67
2020/12/18 18:40:26;;;;;;;383.17;359.37;;;;;;;;;;5098843;28;20188;-65
2020/12/18 18:42:53;;;;;;;553.17;511.00;;;;;;;;;;5110085;28;20173;-65
2020/12/18 18:45:19;;;;;;;532.60;489.00;;;;;;;;;;5102640;28;20177;-67
2020/12/18 18:47:46;;;;;;;545.07;501.37;;;;;;;;;;5104025;28;20190;-66
2020/12/18 18:50:13;;;;;;;581.47;535.97;;;;;;;;;;5101337;28;20197;-66
2020/12/18 18:52:40;;;;;;;599.87;550.83;;;;;;;;;;5104312;28;20227;-66
2020/12/18 18:55:07;;;;;;;540.47;497.83;;;;;;;;;;5107097;28;20183;-65
2020/12/18 18:57:36;;;;;;;510.93;473.90;;;;;;;;;;5107305;27;20281;-66
2020/12/18 19:00:04;;;;;;;532.70;490.90;;;;;;;;;;5104021;27;20186;-65
2020/12/18 19:02:30;;;;;;;489.70;452.07;;;;;;;;;;5111398;27;21084;-67
2020/12/18 19:04:57;;;;;;;624.23;569.90;;;;;;;;;;5113634;27;20212;-65
2020/12/18 19:07:24;;;;;;;691.50;632.53;;;;;;;;;;5106870;27;20178;-65
2020/12/18 19:09:50;;;;;;;718.93;652.80;;;;;;;;;;5100824;27;21791;-66
2020/12/18 19:12:21;;;;;;;560.33;517.03;;;;;;;;;;5110711;27;20225;-65
2020/12/18 19:14:50;;;;;;;529.27;489.53;;;;;;;;;;5108947;27;20182;-67
2020/12/18 19:17:17;;;;;;;640.33;587.33;;;;;;;;;;5105121;27;20185;-65
2020/12/18 19:19:44;;;;;;;648.50;592.63;;;;;;;;;;5107638;27;20170;-65
2020/12/18 19:22:11;;;;;;;926.77;828.47;;;;;;;;;;5106170;27;20495;-66
2020/12/18 19:24:38;;;;;;;693.83;631.70;;;;;;;;;;5102159;27;20268;-66
2020/12/18 19:27:11;;;;;;;667.37;612.67;;;;;;;;;;5107919;27;20194;-66
2020/12/18 19:29:40;;;;;;;827.97;739.23;;;;;;;;;;5104759;27;20177;-66
2020/12/18 19:32:10;;;;;;;781.33;711.53;;;;;;;;;;5104654;27;20767;-65
2020/12/18 19:34:40;;;;;;;770.70;707.43;;;;;;;;;;5100897;27;20182;-66
2020/12/18 19:37:07;;;;;;;853.47;772.87;;;;;;;;;;5107931;27;20187;-65
2020/12/18 19:39:37;;;;;;;786.07;708.80;;;;;;;;;;5100795;27;20178;-66
2020/12/18 19:42:04;;;;;;;847.73;765.70;;;;;;;;;;5100251;27;20563;-65
2020/12/18 19:44:31;;;;;;;823.37;748.63;;;;;;;;;;5108406;27;22207;-66
2020/12/18 19:46:58;;;;;;;868.20;792.23;;;;;;;;;;5103615;27;20576;-65
2020/12/18 19:49:25;;;;;;;835.10;764.20;;;;;;;;;;5109094;27;20697;-66
2020/12/18 19:51:51;;;;;;;777.10;711.23;;;;;;;;;;5111602;27;20225;-66
2020/12/18 19:54:18;;;;;;;858.90;778.30;;;;;;;;;;5101927;27;20429;-67
2020/12/18 19:56:52;;;;;;;761.87;696.27;;;;;;;;;;5105714;27;20993;-65
2020/12/18 19:59:19;;;;;;;739.03;675.77;;;;;;;;;;5098848;27;20661;-66
2020/12/18 20:01:46;;;;;;;731.67;673.10;;;;;;;;;;5104364;27;20185;-66
2020/12/18 20:04:12;;;;;;;727.17;667.93;;;;;;;;;;5111608;27;20265;-65
2020/12/18 20:06:39;;;;;;;767.87;703.73;;;;;;;;;;5102624;27;20650;-65
2020/12/18 20:09:08;;;;;;;895.63;808.20;;;;;;;;;;5112402;27;21025;-66
2020/12/18 20:11:35;;;;;;;836.87;758.63;;;;;;;;;;5108524;27;20235;-66
2020/12/18 20:14:01;;;;;;;836.63;756.17;;;;;;;;;;5109514;27;20535;-66
2020/12/18 20:16:31;;;;;;;746.93;676.23;;;;;;;;;;5104668;27;20857;-66
2020/12/18 20:18:57;;;;;;;815.03;737.93;;;;;;;;;;5103206;27;20185;-65
2020/12/18 20:21:28;;;;;;;796.33;724.43;;;;;;;;;;5109415;27;20195;-65
2020/12/18 20:23:55;;;;;;;875.40;788.50;;;;;;;;;;5106800;27;20188;-65
2020/12/18 20:26:26;;;;;;;681.70;626.07;;;;;;;;;;5106697;27;20177;-64
2020/12/18 20:28:53;;;;;;;760.73;693.77;;;;;;;;;;5099599;27;21274;-65
2020/12/18 20:31:20;;;;;;;734.97;669.20;;;;;;;;;;5097330;27;20185;-64
2020/12/18 20:33:50;;;;;;;765.97;698.40;;;;;;;;;;5101999;27;20195;-64
2020/12/18 20:36:18;;;;;;;791.43;722.57;;;;;;;;;;5100225;27;20211;-64
2020/12/18 20:38:45;;;;;;;731.30;678.13;;;;;;;;;;5098013;27;21943;-66
2020/12/18 20:41:13;;;;;;;853.47;774.57;;;;;;;;;;5096052;27;20907;-65
2020/12/18 20:43:40;;;;;;;690.23;639.43;;;;;;;;;;5105917;27;20190;-65
2020/12/18 20:46:14;;;;;;;737.97;675.60;;;;;;;;;;5108668;27;20217;-65
2020/12/18 20:48:44;;;;;;;776.27;711.17;;;;;;;;;;5101050;27;20175;-66
2020/12/18 20:51:14;;;;;;;843.53;772.80;;;;;;;;;;5111223;27;20385;-66
2020/12/18 20:53:41;;;;;;;806.27;745.57;;;;;;;;;;5110810;27;20190;-66
2020/12/18 20:56:08;;;;;;;698.47;640.17;;;;;;;;;;5101118;27;21776;-67
2020/12/18 20:58:35;;;;;;;835.80;761.87;;;;;;;;;;5101481;27;20636;-66
2020/12/18 21:01:01;;;;;;;718.23;660.47;;;;;;;;;;5098944;27;20732;-66
2020/12/18 21:03:28;;;;;;;937.87;855.00;;;;;;;;;;5104340;27;20197;-66
2020/12/18 21:05:54;;;;;;;783.23;714.83;;;;;;;;;;5102639;27;20181;-65
2020/12/18 21:08:21;;;;;;;762.60;697.10;;;;;;;;;;5082393;27;20205;-67
2020/12/18 21:10:48;;;;;;;846.80;775.13;;;;;;;;;;5109243;27;20990;-67
2020/12/18 21:13:22;;;;;;;962.47;872.60;;;;;;;;;;5104950;27;20265;-66
2020/12/18 21:15:48;;;;;;;682.97;630.73;;;;;;;;;;5102122;27;20324;-67
2020/12/18 21:18:15;;;;;;;721.53;662.37;;;;;;;;;;5099116;27;20213;-66
2020/12/18 21:20:42;;;;;;;834.40;757.77;;;;;;;;;;5098763;27;20182;-66
2020/12/18 21:23:08;;;;;;;724.57;663.57;;;;;;;;;;5113143;27;20510;-66
2020/12/18 21:25:35;;;;;;;746.63;685.70;;;;;;;;;;5098640;27;21049;-65
2020/12/18 21:28:04;;;;;;;692.63;635.83;;;;;;;;;;5109133;27;20256;-66
2020/12/18 21:30:31;;;;;;;852.07;772.00;;;;;;;;;;5107898;27;20186;-65
2020/12/18 21:32:58;;;;;;;831.20;750.13;;;;;;;;;;5096787;27;20232;-66
2020/12/18 21:35:25;;;;;;;732.20;670.83;;;;;;;;;;5106704;27;20182;-66
2020/12/18 21:37:53;;;;;;;747.30;685.53;;;;;;;;;;5106451;27;20704;-65
2020/12/18 21:40:19;;;;;;;815.77;735.97;;;;;;;;;;5096028;27;20288;-66
2020/12/18 21:42:46;;;;;;;851.47;770.77;;;;;;;;;;5103812;27;20172;-66
2020/12/18 21:45:17;;;;;;;747.73;682.67;;;;;;;;;;5106128;27;20185;-65
2020/12/18 21:47:45;;;;;;;844.43;766.03;;;;;;;;;;5103948;27;20179;-66
2020/12/18 21:50:12;;;;;;;789.03;720.63;;;;;;;;;;5105635;27;20324;-67
2020/12/18 21:52:39;;;;;;;698.87;641.70;;;;;;;;;;5106054;27;20278;-66
2020/12/18 21:55:17;;;;;;;747.30;686.13;;;;;;;;;;5105571;27;20553;-66
2020/12/18 21:57:43;;;;;;;773.97;711.00;;;;;;;;;;5100731;27;20193;-65
2020/12/18 22:00:12;;;;;;;722.43;667.03;;;;;;;;;;5105462;27;20274;-66
2020/12/18 22:02:39;;;;;;;778.87;713.10;;;;;;;;;;5103646;27;20545;-66
2020/12/18 22:05:06;;;;;;;800.50;734.67;;;;;;;;;;5107193;27;20231;-66
2020/12/18 22:07:37;;;;;;;831.70;759.20;;;;;;;;;;5095881;27;20166;-65
2020/12/18 22:10:04;;;;;;;894.20;812.63;;;;;;;;;;5085877;28;21598;-64
2020/12/18 22:12:32;;;;;;;631.93;587.37;;;;;;;;;;5084456;28;20573;-66
2020/12/18 22:14:58;;;;;;;767.17;705.37;;;;;;;;;;5077971;28;20251;-66
2020/12/18 22:17:27;;;;;;;686.07;634.93;;;;;;;;;;5099038;28;20706;-65
2020/12/18 22:19:54;;;;;;;719.20;661.63;;;;;;;;;;5093742;28;20260;-65
2020/12/18 22:22:23;;;;;;;702.13;649.90;;;;;;;;;;5095257;28;20627;-66
2020/12/18 22:24:49;;;;;;;655.07;609.73;;;;;;;;;;5103570;28;20178;-65
2020/12/18 22:27:16;;;;;;;918.90;836.40;;;;;;;;;;5093414;28;20249;-66
2020/12/18 22:29:43;;;;;;;677.77;627.60;;;;;;;;;;5104573;28;20168;-64
2020/12/18 22:32:09;;;;;;;936.50;848.73;;;;;;;;;;5098846;28;20607;-66
2020/12/18 22:34:36;;;;;;;741.73;684.03;;;;;;;;;;5092243;27;20188;-66
2020/12/18 22:37:02;;;;;;;799.23;732.60;;;;;;;;;;5104265;27;20640;-65
2020/12/18 22:39:32;;;;;;;691.00;642.03;;;;;;;;;;5106310;27;20306;-65
2020/12/18 22:41:59;;;;;;;705.30;652.97;;;;;;;;;;5101106;27;20182;-66
2020/12/18 22:44:28;;;;;;;790.87;728.23;;;;;;;;;;5110833;27;20225;-66
2020/12/18 22:46:58;;;;;;;659.43;612.70;;;;;;;;;;5107447;27;20180;-65
2020/12/18 22:49:25;;;;;;;751.27;694.70;;;;;;;;;;5106145;27;20261;-65
2020/12/18 22:51:52;;;;;;;686.83;638.47;;;;;;;;;;5107276;27;20261;-65
2020/12/18 22:54:21;;;;;;;794.40;732.43;;;;;;;;;;5110379;27;20178;-66
2020/12/18 22:56:48;;;;;;;787.37;723.27;;;;;;;;;;5103840;27;20281;-65
2020/12/18 22:59:14;;;;;;;674.93;625.07;;;;;;;;;;5110854;27;20201;-65
2020/12/18 23:01:41;;;;;;;725.07;670.80;;;;;;;;;;5089120;27;20177;-66
2020/12/18 23:04:08;;;;;;;879.73;803.13;;;;;;;;;;5091587;28;20242;-65
2020/12/18 23:06:37;;;;;;;756.93;700.00;;;;;;;;;;5093912;28;20177;-65
2020/12/18 23:09:06;;;;;;;733.30;678.07;;;;;;;;;;5097274;28;20185;-65
2020/12/18 23:11:32;;;;;;;788.20;725.63;;;;;;;;;;5094653;28;20239;-65
2020/12/18 23:13:59;;;;;;;813.50;747.27;;;;;;;;;;5091817;28;20220;-66
2020/12/18 23:16:32;;;;;;;825.90;761.80;;;;;;;;;;5085188;28;20186;-64
2020/12/18 23:19:02;;;;;;;770.50;712.23;;;;;;;;;;5085186;28;20189;-65
2020/12/18 23:21:29;;;;;;;840.67;771.30;;;;;;;;;;5097270;28;20177;-67
2020/12/18 23:23:58;;;;;;;851.13;783.50;;;;;;;;;;5096901;27;20182;-67
2020/12/18 23:26:27;;;;;;;857.23;787.00;;;;;;;;;;5099345;28;20268;-66
2020/12/18 23:28:54;;;;;;;887.27;811.83;;;;;;;;;;5090513;27;20197;-67
2020/12/18 23:31:23;;;;;;;762.63;706.10;;;;;;;;;;5091632;28;20317;-66
2020/12/18 23:33:49;;;;;;;832.57;764.60;;;;;;;;;;5096015;28;20696;-66
2020/12/18 23:36:16;;;;;;;746.17;692.57;;;;;;;;;;5092760;28;20297;-65
2020/12/18 23:38:45;;;;;;;854.43;787.70;;;;;;;;;;5073931;22;20489;-67
2020/12/18 23:41:12;;;;;;;774.50;717.77;;;;;;;;;;5036356;28;20203;-67
2020/12/18 23:43:44;;;;;;;770.43;710.90;;;;;;;;;;5037926;28;20282;-67
2020/12/18 23:46:14;;;;;;;823.73;758.53;;;;;;;;;;5037060;28;20193;-67
2020/12/18 23:48:41;;;;;;;801.30;741.00;;;;;;;;;;5035547;28;20819;-67
2020/12/18 23:51:12;;;;;;;906.50;828.57;;;;;;;;;;5033574;28;20784;-66
2020/12/18 23:53:38;;;;;;;751.27;695.67;;;;;;;;;;5033951;28;20881;-64
2020/12/18 23:56:09;;;;;;;777.77;716.80;;;;;;;;;;5034417;28;20185;-65
2020/12/18 23:58:40;;;;;;;764.73;707.37;;;;;;;;;;5029931;28;20235;-66
